Terminal Aerodrome Forecast
Issued by NWS Bismarck, ND

Home | Current Version | Previous Version | Graphics & Text | Print | Product List | Glossary On
Versions: 1 2 3 4 5 6 7 8 9 10 11 12 13 14 15 16 17 18 19
000
FTUS43 KBIS 240500
TAFISN
TAF
KISN 240539Z 2406/2506 11012KT P6SM SCT050
      TEMPO 2407/2411 VRB15G25KT 4SM TSRA BKN050CB
     FM241100 12012KT P6SM SCT250
     FM242300 15010KT P6SM BKN150=

USA.gov is the U.S. government's official web portal to all federal, state and local government web resources and services.